sensor_id;sensor_type;location;lat;lon;timestamp;pressure;altitude;pressure_sealevel;temperature;humidity
77321;BME280;66382;52.252;8.780;2023-06-14T00:01:58;100603.28;;;19.02;36.26
77321;BME280;66382;52.252;8.780;2023-06-14T00:04:25;100610.25;;;18.98;35.57
77321;BME280;66382;52.252;8.780;2023-06-14T00:06:51;100598.47;;;18.93;35.89
77321;BME280;66382;52.252;8.780;2023-06-14T00:09:16;100603.44;;;18.96;35.71
77321;BME280;66382;52.252;8.780;2023-06-14T00:11:42;100606.13;;;18.96;35.40
77321;BME280;66382;52.252;8.780;2023-06-14T00:14:08;100611.00;;;18.94;35.44
77321;BME280;66382;52.252;8.780;2023-06-14T00:16:33;100609.00;;;18.89;35.19
77321;BME280;66382;52.252;8.780;2023-06-14T00:18:59;100605.44;;;18.88;35.22
77321;BME280;66382;52.252;8.780;2023-06-14T00:21:26;100615.72;;;18.86;35.46
77321;BME280;66382;52.252;8.780;2023-06-14T00:23:52;100614.09;;;18.85;35.05
77321;BME280;66382;52.252;8.780;2023-06-14T00:26:18;100613.28;;;18.85;35.45
77321;BME280;66382;52.252;8.780;2023-06-14T00:28:43;100604.66;;;18.76;35.53
77321;BME280;66382;52.252;8.780;2023-06-14T00:31:09;100618.94;;;18.83;35.58
77321;BME280;66382;52.252;8.780;2023-06-14T00:33:35;100616.72;;;18.80;35.63
77321;BME280;66382;52.252;8.780;2023-06-14T00:36:00;100614.00;;;18.80;35.47
77321;BME280;66382;52.252;8.780;2023-06-14T00:38:27;100617.19;;;18.77;35.88
77321;BME280;66382;52.252;8.780;2023-06-14T00:40:53;100612.59;;;18.78;35.98
77321;BME280;66382;52.252;8.780;2023-06-14T00:43:19;100616.13;;;18.78;35.83
77321;BME280;66382;52.252;8.780;2023-06-14T00:45:45;100618.25;;;18.76;35.69
77321;BME280;66382;52.252;8.780;2023-06-14T00:48:11;100608.31;;;18.70;35.89
77321;BME280;66382;52.252;8.780;2023-06-14T00:50:37;100618.69;;;18.73;36.49
77321;BME280;66382;52.252;8.780;2023-06-14T00:53:04;100626.03;;;18.73;36.02
77321;BME280;66382;52.252;8.780;2023-06-14T00:55:31;100622.50;;;18.72;35.99
77321;BME280;66382;52.252;8.780;2023-06-14T00:57:57;100625.44;;;18.70;36.13
77321;BME280;66382;52.252;8.780;2023-06-14T01:00:23;100627.34;;;18.70;35.89
77321;BME280;66382;52.252;8.780;2023-06-14T01:02:48;100638.41;;;18.68;35.83
77321;BME280;66382;52.252;8.780;2023-06-14T01:05:14;100630.97;;;18.64;36.19
77321;BME280;66382;52.252;8.780;2023-06-14T01:07:49;100631.84;;;18.64;35.79
77321;BME280;66382;52.252;8.780;2023-06-14T01:10:35;100630.66;;;18.60;35.93
77321;BME280;66382;52.252;8.780;2023-06-14T01:13:08;100639.03;;;18.59;35.92
77321;BME280;66382;52.252;8.780;2023-06-14T01:15:37;100641.63;;;18.54;36.32
77321;BME280;66382;52.252;8.780;2023-06-14T01:18:04;100626.06;;;18.49;36.21
77321;BME280;66382;52.252;8.780;2023-06-14T01:20:31;100638.56;;;18.50;35.73
77321;BME280;66382;52.252;8.780;2023-06-14T01:22:59;100632.78;;;18.46;36.73
77321;BME280;66382;52.252;8.780;2023-06-14T01:25:25;100632.91;;;18.40;36.28
77321;BME280;66382;52.252;8.780;2023-06-14T01:27:55;100639.78;;;18.42;36.49
77321;BME280;66382;52.252;8.780;2023-06-14T01:30:23;100640.22;;;18.39;37.31
77321;BME280;66382;52.252;8.780;2023-06-14T01:32:49;100638.34;;;18.40;36.81
77321;BME280;66382;52.252;8.780;2023-06-14T01:35:15;100638.81;;;18.37;36.51
77321;BME280;66382;52.252;8.780;2023-06-14T01:37:43;100638.81;;;18.37;36.74
77321;BME280;66382;52.252;8.780;2023-06-14T01:40:11;100647.66;;;18.32;36.71
77321;BME280;66382;52.252;8.780;2023-06-14T01:42:38;100648.94;;;18.30;36.73
77321;BME280;66382;52.252;8.780;2023-06-14T01:45:06;100650.25;;;18.27;36.84
77321;BME280;66382;52.252;8.780;2023-06-14T01:47:33;100649.31;;;18.21;36.88
77321;BME280;66382;52.252;8.780;2023-06-14T01:49:59;100650.50;;;18.14;37.08
77321;BME280;66382;52.252;8.780;2023-06-14T01:52:24;100652.25;;;18.08;37.12
77321;BME280;66382;52.252;8.780;2023-06-14T01:54:50;100647.75;;;18.02;37.34
77321;BME280;66382;52.252;8.780;2023-06-14T01:57:17;100656.59;;;17.97;37.55
77321;BME280;66382;52.252;8.780;2023-06-14T01:59:43;100651.31;;;17.91;37.60
77321;BME280;66382;52.252;8.780;2023-06-14T02:02:09;100655.75;;;17.85;37.50
77321;BME280;66382;52.252;8.780;2023-06-14T02:04:34;100654.78;;;17.79;38.03
77321;BME280;66382;52.252;8.780;2023-06-14T02:07:00;100653.94;;;17.79;37.88
77321;BME280;66382;52.252;8.780;2023-06-14T02:09:26;100645.09;;;17.72;37.76
77321;BME280;66382;52.252;8.780;2023-06-14T02:11:51;100661.13;;;17.73;38.13
77321;BME280;66382;52.252;8.780;2023-06-14T02:14:19;100653.69;;;17.69;37.66
77321;BME280;66382;52.252;8.780;2023-06-14T02:16:44;100667.13;;;17.63;37.59
77321;BME280;66382;52.252;8.780;2023-06-14T02:19:10;100663.81;;;17.61;38.11
77321;BME280;66382;52.252;8.780;2023-06-14T02:21:36;100657.31;;;17.51;38.12
77321;BME280;66382;52.252;8.780;2023-06-14T02:24:01;100671.44;;;17.53;38.22
77321;BME280;66382;52.252;8.780;2023-06-14T02:26:27;100670.00;;;17.50;38.43
77321;BME280;66382;52.252;8.780;2023-06-14T02:28:53;100675.69;;;17.49;38.59
77321;BME280;66382;52.252;8.780;2023-06-14T02:31:20;100670.13;;;17.44;38.47
77321;BME280;66382;52.252;8.780;2023-06-14T02:33:46;100674.13;;;17.41;38.56
77321;BME280;66382;52.252;8.780;2023-06-14T02:36:11;100674.34;;;17.39;38.31
77321;BME280;66382;52.252;8.780;2023-06-14T02:38:37;100677.25;;;17.38;38.64
77321;BME280;66382;52.252;8.780;2023-06-14T02:41:03;100665.59;;;17.37;38.73
77321;BME280;66382;52.252;8.780;2023-06-14T02:43:29;100679.16;;;17.37;38.47
77321;BME280;66382;52.252;8.780;2023-06-14T02:45:54;100671.47;;;17.34;38.68
77321;BME280;66382;52.252;8.780;2023-06-14T02:48:21;100670.06;;;17.32;38.55
77321;BME280;66382;52.252;8.780;2023-06-14T02:50:47;100675.69;;;17.30;38.88
77321;BME280;66382;52.252;8.780;2023-06-14T02:53:13;100676.97;;;17.28;38.67
77321;BME280;66382;52.252;8.780;2023-06-14T02:55:38;100672.03;;;17.25;39.00
77321;BME280;66382;52.252;8.780;2023-06-14T02:58:04;100674.75;;;17.25;39.52
77321;BME280;66382;52.252;8.780;2023-06-14T03:00:30;100675.56;;;17.25;39.37
77321;BME280;66382;52.252;8.780;2023-06-14T03:02:55;100671.44;;;17.23;38.88
77321;BME280;66382;52.252;8.780;2023-06-14T03:05:22;100678.13;;;17.20;38.81
77321;BME280;66382;52.252;8.780;2023-06-14T03:07:48;100675.66;;;17.18;40.05
77321;BME280;66382;52.252;8.780;2023-06-14T03:10:14;100684.63;;;17.19;39.34
77321;BME280;66382;52.252;8.780;2023-06-14T03:12:40;100684.22;;;17.15;38.83
77321;BME280;66382;52.252;8.780;2023-06-14T03:15:06;100681.84;;;17.07;39.35
77321;BME280;66382;52.252;8.780;2023-06-14T03:17:32;100678.06;;;17.08;39.96
77321;BME280;66382;52.252;8.780;2023-06-14T03:19:58;100688.31;;;17.06;40.24
77321;BME280;66382;52.252;8.780;2023-06-14T03:22:25;100687.09;;;17.02;39.17
77321;BME280;66382;52.252;8.780;2023-06-14T03:24:50;100695.69;;;16.99;39.71
77321;BME280;66382;52.252;8.780;2023-06-14T03:27:16;100685.28;;;16.96;39.09
77321;BME280;66382;52.252;8.780;2023-06-14T03:29:42;100679.13;;;16.89;39.87
77321;BME280;66382;52.252;8.780;2023-06-14T03:32:08;100690.19;;;16.87;39.62
77321;BME280;66382;52.252;8.780;2023-06-14T03:34:34;100701.91;;;16.81;39.49
77321;BME280;66382;52.252;8.780;2023-06-14T03:37:00;100704.03;;;16.79;39.59
77321;BME280;66382;52.252;8.780;2023-06-14T03:39:27;100697.84;;;16.72;39.98
77321;BME280;66382;52.252;8.780;2023-06-14T03:41:52;100716.13;;;16.76;40.66
77321;BME280;66382;52.252;8.780;2023-06-14T03:44:19;100703.25;;;16.72;40.14
77321;BME280;66382;52.252;8.780;2023-06-14T03:46:45;100710.97;;;16.68;40.12
77321;BME280;66382;52.252;8.780;2023-06-14T03:49:11;100698.94;;;16.64;40.44
77321;BME280;66382;52.252;8.780;2023-06-14T03:51:37;100707.66;;;16.66;39.89
77321;BME280;66382;52.252;8.780;2023-06-14T03:54:02;100707.06;;;16.64;41.01
77321;BME280;66382;52.252;8.780;2023-06-14T03:56:29;100715.00;;;16.59;40.43
77321;BME280;66382;52.252;8.780;2023-06-14T03:58:55;100717.72;;;16.59;40.37
77321;BME280;66382;52.252;8.780;2023-06-14T04:01:21;100725.63;;;16.61;40.36
77321;BME280;66382;52.252;8.780;2023-06-14T04:03:47;100694.16;;;16.41;40.51
77321;BME280;66382;52.252;8.780;2023-06-14T04:06:12;100717.72;;;16.59;41.26
77321;BME280;66382;52.252;8.780;2023-06-14T04:08:38;100731.25;;;16.59;40.54
77321;BME280;66382;52.252;8.780;2023-06-14T04:11:04;100718.78;;;16.58;41.00
77321;BME280;66382;52.252;8.780;2023-06-14T04:13:31;100731.25;;;16.59;40.53
77321;BME280;66382;52.252;8.780;2023-06-14T04:15:56;100721.13;;;16.54;40.68
77321;BME280;66382;52.252;8.780;2023-06-14T04:18:22;100729.41;;;16.60;41.00
77321;BME280;66382;52.252;8.780;2023-06-14T04:20:48;100739.16;;;16.61;41.02
77321;BME280;66382;52.252;8.780;2023-06-14T04:23:15;100740.44;;;16.58;41.77
77321;BME280;66382;52.252;8.780;2023-06-14T04:25:41;100739.22;;;16.54;41.39
77321;BME280;66382;52.252;8.780;2023-06-14T04:28:07;100750.66;;;16.56;41.27
77321;BME280;66382;52.252;8.780;2023-06-14T04:30:34;100747.50;;;16.59;40.89
77321;BME280;66382;52.252;8.780;2023-06-14T04:32:59;100760.34;;;16.64;40.98
77321;BME280;66382;52.252;8.780;2023-06-14T04:35:25;100752.31;;;16.82;40.64
77321;BME280;66382;52.252;8.780;2023-06-14T04:37:51;100752.84;;;17.28;42.85
77321;BME280;66382;52.252;8.780;2023-06-14T04:40:17;100757.53;;;17.88;41.42
77321;BME280;66382;52.252;8.780;2023-06-14T04:42:43;100758.97;;;18.44;41.11
77321;BME280;66382;52.252;8.780;2023-06-14T04:45:09;100766.09;;;18.92;40.93
77321;BME280;66382;52.252;8.780;2023-06-14T04:47:36;100775.22;;;19.38;40.13
77321;BME280;66382;52.252;8.780;2023-06-14T04:50:02;100776.41;;;19.83;40.29
77321;BME280;66382;52.252;8.780;2023-06-14T04:52:28;100774.19;;;20.25;39.25
77321;BME280;66382;52.252;8.780;2023-06-14T04:54:54;100771.47;;;20.42;38.91
77321;BME280;66382;52.252;8.780;2023-06-14T04:57:19;100786.13;;;20.70;39.41
77321;BME280;66382;52.252;8.780;2023-06-14T04:59:45;100780.22;;;20.95;38.58
77321;BME280;66382;52.252;8.780;2023-06-14T05:02:11;100776.13;;;21.14;37.81
77321;BME280;66382;52.252;8.780;2023-06-14T05:04:38;100777.38;;;21.07;37.35
77321;BME280;66382;52.252;8.780;2023-06-14T05:07:04;100779.09;;;20.74;37.27
77321;BME280;66382;52.252;8.780;2023-06-14T05:09:29;100774.38;;;20.35;37.13
77321;BME280;66382;52.252;8.780;2023-06-14T05:11:55;100772.91;;;19.99;37.80
77321;BME280;66382;52.252;8.780;2023-06-14T05:14:21;100766.16;;;19.73;38.25
77321;BME280;66382;52.252;8.780;2023-06-14T05:16:46;100783.47;;;19.55;38.60
77321;BME280;66382;52.252;8.780;2023-06-14T05:19:12;100783.97;;;19.40;38.47
77321;BME280;66382;52.252;8.780;2023-06-14T05:21:39;100783.88;;;19.23;38.64
77321;BME280;66382;52.252;8.780;2023-06-14T05:24:05;100781.31;;;19.05;39.69
77321;BME280;66382;52.252;8.780;2023-06-14T05:26:31;100784.97;;;18.99;39.63
77321;BME280;66382;52.252;8.780;2023-06-14T05:28:57;100783.22;;;18.93;39.41
77321;BME280;66382;52.252;8.780;2023-06-14T05:31:23;100789.38;;;18.88;39.68
77321;BME280;66382;52.252;8.780;2023-06-14T05:33:49;100788.72;;;18.74;40.28
77321;BME280;66382;52.252;8.780;2023-06-14T05:36:15;100792.28;;;18.63;40.19
77321;BME280;66382;52.252;8.780;2023-06-14T05:38:42;100792.97;;;18.58;39.80
77321;BME280;66382;52.252;8.780;2023-06-14T05:41:08;100795.78;;;18.52;39.94
77321;BME280;66382;52.252;8.780;2023-06-14T05:43:34;100796.97;;;18.44;40.24
77321;BME280;66382;52.252;8.780;2023-06-14T05:45:59;100793.09;;;18.40;40.41
77321;BME280;66382;52.252;8.780;2023-06-14T05:48:25;100794.22;;;18.32;40.33
77321;BME280;66382;52.252;8.780;2023-06-14T05:50:51;100798.47;;;18.28;40.30
77321;BME280;66382;52.252;8.780;2023-06-14T05:53:16;100802.22;;;18.27;40.99
77321;BME280;66382;52.252;8.780;2023-06-14T05:55:43;100807.91;;;18.25;40.10
77321;BME280;66382;52.252;8.780;2023-06-14T05:58:09;100806.09;;;18.19;40.78
77321;BME280;66382;52.252;8.780;2023-06-14T06:00:35;100807.88;;;18.14;41.14
77321;BME280;66382;52.252;8.780;2023-06-14T06:03:01;100812.22;;;18.15;41.34
77321;BME280;66382;52.252;8.780;2023-06-14T06:05:26;100815.78;;;18.15;40.59
77321;BME280;66382;52.252;8.780;2023-06-14T06:07:52;100817.06;;;18.13;42.13
77321;BME280;66382;52.252;8.780;2023-06-14T06:10:18;100816.00;;;18.14;41.28
77321;BME280;66382;52.252;8.780;2023-06-14T06:12:45;100805.50;;;18.05;40.62
77321;BME280;66382;52.252;8.780;2023-06-14T06:15:11;100816.78;;;18.02;40.22
77321;BME280;66382;52.252;8.780;2023-06-14T06:17:36;100818.47;;;17.85;41.54
77321;BME280;66382;52.252;8.780;2023-06-14T06:20:03;100808.38;;;17.74;41.25
77321;BME280;66382;52.252;8.780;2023-06-14T06:22:28;100820.63;;;17.83;41.72
77321;BME280;66382;52.252;8.780;2023-06-14T06:24:54;100833.09;;;17.84;41.77
77321;BME280;66382;52.252;8.780;2023-06-14T06:27:20;100832.63;;;17.87;41.05
77321;BME280;66382;52.252;8.780;2023-06-14T06:29:47;100832.63;;;17.87;41.42
77321;BME280;66382;52.252;8.780;2023-06-14T06:32:12;100828.03;;;17.88;41.07
77321;BME280;66382;52.252;8.780;2023-06-14T06:34:38;100827.69;;;17.84;41.80
77321;BME280;66382;52.252;8.780;2023-06-14T06:37:04;100835.00;;;17.83;42.07
77321;BME280;66382;52.252;8.780;2023-06-14T06:39:30;100835.97;;;17.89;41.56
77321;BME280;66382;52.252;8.780;2023-06-14T06:41:56;100836.91;;;17.95;41.63
77321;BME280;66382;52.252;8.780;2023-06-14T06:44:22;100837.31;;;17.98;42.73
77321;BME280;66382;52.252;8.780;2023-06-14T06:46:49;100839.78;;;18.00;41.38
77321;BME280;66382;52.252;8.780;2023-06-14T06:49:15;100835.41;;;17.99;41.41
77321;BME280;66382;52.252;8.780;2023-06-14T06:51:41;100836.09;;;17.94;44.01
77321;BME280;66382;52.252;8.780;2023-06-14T06:54:07;100842.59;;;17.93;42.88
77321;BME280;66382;52.252;8.780;2023-06-14T06:56:33;100846.13;;;17.94;42.70
77321;BME280;66382;52.252;8.780;2023-06-14T06:58:59;100845.66;;;17.97;41.59
77321;BME280;66382;52.252;8.780;2023-06-14T07:01:24;100847.34;;;17.98;42.16
77321;BME280;66382;52.252;8.780;2023-06-14T07:03:52;100837.53;;;17.97;42.91
77321;BME280;66382;52.252;8.780;2023-06-14T07:06:17;100850.25;;;17.96;41.47
77321;BME280;66382;52.252;8.780;2023-06-14T07:08:43;100849.81;;;17.99;42.92
77321;BME280;66382;52.252;8.780;2023-06-14T07:11:09;100842.41;;;18.07;42.25
77321;BME280;66382;52.252;8.780;2023-06-14T07:13:34;100852.78;;;18.10;42.27
77321;BME280;66382;52.252;8.780;2023-06-14T07:16:00;100845.25;;;18.12;42.50
77321;BME280;66382;52.252;8.780;2023-06-14T07:18:26;100855.78;;;18.20;41.98
77321;BME280;66382;52.252;8.780;2023-06-14T07:20:53;100853.56;;;18.29;42.18
77321;BME280;66382;52.252;8.780;2023-06-14T07:23:19;100866.81;;;18.37;42.42
77321;BME280;66382;52.252;8.780;2023-06-14T07:25:45;100853.03;;;18.38;42.85
77321;BME280;66382;52.252;8.780;2023-06-14T07:28:11;100862.38;;;18.42;41.78
77321;BME280;66382;52.252;8.780;2023-06-14T07:30:36;100858.81;;;18.42;41.76
77321;BME280;66382;52.252;8.780;2023-06-14T07:33:02;100857.88;;;18.48;42.20
77321;BME280;66382;52.252;8.780;2023-06-14T07:35:28;100858.38;;;18.57;41.88
77321;BME280;66382;52.252;8.780;2023-06-14T07:37:55;100858.19;;;18.70;42.42
77321;BME280;66382;52.252;8.780;2023-06-14T07:40:21;100849.44;;;18.68;43.14
77321;BME280;66382;52.252;8.780;2023-06-14T07:42:46;100870.41;;;18.79;41.46
77321;BME280;66382;52.252;8.780;2023-06-14T07:45:13;100866.13;;;18.83;42.91
77321;BME280;66382;52.252;8.780;2023-06-14T07:47:39;100865.22;;;18.89;41.68
77321;BME280;66382;52.252;8.780;2023-06-14T07:50:06;100874.06;;;18.97;41.53
77321;BME280;66382;52.252;8.780;2023-06-14T07:52:31;100869.47;;;19.09;41.66
77321;BME280;66382;52.252;8.780;2023-06-14T07:54:58;100866.88;;;19.14;41.49
77321;BME280;66382;52.252;8.780;2023-06-14T07:57:24;100859.66;;;19.08;41.17
77321;BME280;66382;52.252;8.780;2023-06-14T07:59:50;100866.88;;;19.02;42.30
77321;BME280;66382;52.252;8.780;2023-06-14T08:02:16;100871.47;;;19.13;41.53
77321;BME280;66382;52.252;8.780;2023-06-14T08:04:41;100871.94;;;19.10;41.16
77321;BME280;66382;52.252;8.780;2023-06-14T08:07:07;100867.34;;;18.99;41.24
77321;BME280;66382;52.252;8.780;2023-06-14T08:09:33;100879.84;;;19.00;40.56
77321;BME280;66382;52.252;8.780;2023-06-14T08:12:00;100880.22;;;19.16;41.40
77321;BME280;66382;52.252;8.780;2023-06-14T08:14:26;100873.00;;;19.33;41.89
77321;BME280;66382;52.252;8.780;2023-06-14T08:16:51;100879.63;;;19.37;41.25
77321;BME280;66382;52.252;8.780;2023-06-14T08:19:17;100876.78;;;19.44;42.75
77321;BME280;66382;52.252;8.780;2023-06-14T08:21:43;100870.59;;;19.60;42.07
77321;BME280;66382;52.252;8.780;2023-06-14T08:24:10;100872.84;;;19.75;41.70
77321;BME280;66382;52.252;8.780;2023-06-14T08:26:36;100871.19;;;20.14;41.03
77321;BME280;66382;52.252;8.780;2023-06-14T08:29:03;100872.78;;;20.56;40.46
77321;BME280;66382;52.252;8.780;2023-06-14T08:31:28;100874.44;;;20.74;40.60
77321;BME280;66382;52.252;8.780;2023-06-14T08:33:54;100868.31;;;21.17;41.59
77321;BME280;66382;52.252;8.780;2023-06-14T08:36:20;100861.13;;;21.89;42.06
77321;BME280;66382;52.252;8.780;2023-06-14T08:38:45;100869.03;;;22.67;41.48
77321;BME280;66382;52.252;8.780;2023-06-14T08:41:11;100859.81;;;23.05;40.38
77321;BME280;66382;52.252;8.780;2023-06-14T08:43:37;100861.22;;;23.66;41.33
77321;BME280;66382;52.252;8.780;2023-06-14T08:46:06;100863.94;;;24.39;41.73
77321;BME280;66382;52.252;8.780;2023-06-14T08:48:32;100859.03;;;24.87;39.39
77321;BME280;66382;52.252;8.780;2023-06-14T08:50:59;100870.00;;;25.13;38.52
77321;BME280;66382;52.252;8.780;2023-06-14T08:53:25;100869.44;;;25.26;38.66
77321;BME280;66382;52.252;8.780;2023-06-14T08:55:51;100872.69;;;25.48;37.90
77321;BME280;66382;52.252;8.780;2023-06-14T08:58:17;100867.69;;;25.66;37.79
77321;BME280;66382;52.252;8.780;2023-06-14T09:00:43;100877.22;;;25.84;37.59
77321;BME280;66382;52.252;8.780;2023-06-14T09:03:10;100880.28;;;25.77;37.44
77321;BME280;66382;52.252;8.780;2023-06-14T09:05:36;100869.53;;;25.86;36.72
77321;BME280;66382;52.252;8.780;2023-06-14T09:08:01;100874.94;;;26.06;36.90
77321;BME280;66382;52.252;8.780;2023-06-14T09:10:27;100877.84;;;26.25;36.39
77321;BME280;66382;52.252;8.780;2023-06-14T09:12:53;100873.31;;;26.45;37.22
77321;BME280;66382;52.252;8.780;2023-06-14T09:15:19;100876.53;;;26.62;36.57
77321;BME280;66382;52.252;8.780;2023-06-14T09:17:44;100870.56;;;26.84;35.13
77321;BME280;66382;52.252;8.780;2023-06-14T09:20:11;100875.28;;;27.08;37.52
77321;BME280;66382;52.252;8.780;2023-06-14T09:22:37;100871.53;;;26.98;34.83
77321;BME280;66382;52.252;8.780;2023-06-14T09:25:03;100881.19;;;26.96;34.40
77321;BME280;66382;52.252;8.780;2023-06-14T09:27:29;100883.50;;;26.84;34.40
77321;BME280;66382;52.252;8.780;2023-06-14T09:29:55;100879.22;;;26.67;35.83
77321;BME280;66382;52.252;8.780;2023-06-14T09:32:21;100882.72;;;26.78;35.73
77321;BME280;66382;52.252;8.780;2023-06-14T09:34:48;100879.03;;;26.58;34.94
77321;BME280;66382;52.252;8.780;2023-06-14T09:37:26;100876.16;;;26.74;36.34
77321;BME280;66382;52.252;8.780;2023-06-14T09:39:52;100883.09;;;27.00;34.84
77321;BME280;66382;52.252;8.780;2023-06-14T09:42:18;100880.88;;;27.32;35.56
77321;BME280;66382;52.252;8.780;2023-06-14T09:44:46;100877.72;;;27.67;35.70
77321;BME280;66382;52.252;8.780;2023-06-14T09:47:13;100886.78;;;27.68;33.31
77321;BME280;66382;52.252;8.780;2023-06-14T09:49:40;100880.63;;;27.28;34.52
77321;BME280;66382;52.252;8.780;2023-06-14T09:52:07;100880.38;;;27.24;35.08
77321;BME280;66382;52.252;8.780;2023-06-14T09:54:41;100887.00;;;27.23;34.93
77321;BME280;66382;52.252;8.780;2023-06-14T09:57:07;100883.84;;;27.06;34.54
77321;BME280;66382;52.252;8.780;2023-06-14T09:59:35;100871.94;;;27.16;34.80
77321;BME280;66382;52.252;8.780;2023-06-14T10:02:09;100879.56;;;27.24;35.02
77321;BME280;66382;52.252;8.780;2023-06-14T10:04:37;100864.06;;;27.57;34.93
77321;BME280;66382;52.252;8.780;2023-06-14T10:07:04;100870.91;;;27.84;33.83
77321;BME280;66382;52.252;8.780;2023-06-14T10:09:30;100871.63;;;27.95;34.43
77321;BME280;66382;52.252;8.780;2023-06-14T10:11:58;100879.88;;;27.95;33.58
77321;BME280;66382;52.252;8.780;2023-06-14T10:14:24;100872.72;;;27.70;33.22
77321;BME280;66382;52.252;8.780;2023-06-14T10:16:57;100875.19;;;27.23;33.51
77321;BME280;66382;52.252;8.780;2023-06-14T10:19:30;100876.78;;;26.95;33.60
77321;BME280;66382;52.252;8.780;2023-06-14T10:22:01;100881.56;;;26.84;33.00
77321;BME280;66382;52.252;8.780;2023-06-14T10:24:32;100882.34;;;26.55;32.93
77321;BME280;66382;52.252;8.780;2023-06-14T10:27:00;100880.59;;;26.25;33.50
77321;BME280;66382;52.252;8.780;2023-06-14T10:29:25;100883.69;;;26.13;32.77
77321;BME280;66382;52.252;8.780;2023-06-14T10:31:56;100872.28;;;25.86;32.39
77321;BME280;66382;52.252;8.780;2023-06-14T10:34:23;100872.97;;;25.52;33.03
77321;BME280;66382;52.252;8.780;2023-06-14T10:37:00;100871.38;;;25.20;33.62
77321;BME280;66382;52.252;8.780;2023-06-14T10:39:26;100873.56;;;25.08;32.61
77321;BME280;66382;52.252;8.780;2023-06-14T10:41:53;100856.84;;;24.94;35.06
77321;BME280;66382;52.252;8.780;2023-06-14T10:44:40;100857.38;;;25.06;33.54
77321;BME280;66382;52.252;8.780;2023-06-14T10:47:07;100854.94;;;24.84;33.27
77321;BME280;66382;52.252;8.780;2023-06-14T10:49:38;100856.56;;;24.75;33.62
77321;BME280;66382;52.252;8.780;2023-06-14T10:52:05;100861.78;;;24.61;32.81
77321;BME280;66382;52.252;8.780;2023-06-14T10:54:33;100851.31;;;24.38;33.59
77321;BME280;66382;52.252;8.780;2023-06-14T10:56:58;100851.59;;;24.31;33.67
77321;BME280;66382;52.252;8.780;2023-06-14T10:59:24;100854.88;;;24.28;34.28
77321;BME280;66382;52.252;8.780;2023-06-14T11:01:57;100851.28;;;24.17;33.52
77321;BME280;66382;52.252;8.780;2023-06-14T11:04:30;100846.63;;;24.18;34.13
77321;BME280;66382;52.252;8.780;2023-06-14T11:07:17;100844.44;;;24.20;34.30
77321;BME280;66382;52.252;8.780;2023-06-14T11:10:02;100848.28;;;24.19;33.39
77321;BME280;66382;52.252;8.780;2023-06-14T11:12:32;100857.31;;;24.04;33.42
77321;BME280;66382;52.252;8.780;2023-06-14T11:15:00;100841.88;;;23.82;32.94
77321;BME280;66382;52.252;8.780;2023-06-14T11:17:27;100840.13;;;23.61;33.86
77321;BME280;66382;52.252;8.780;2023-06-14T11:20:07;100829.47;;;23.59;34.26
77321;BME280;66382;52.252;8.780;2023-06-14T11:22:39;100835.78;;;23.65;35.34
77321;BME280;66382;52.252;8.780;2023-06-14T11:25:08;100832.03;;;23.76;34.50
77321;BME280;66382;52.252;8.780;2023-06-14T11:27:34;100836.13;;;23.79;34.23
77321;BME280;66382;52.252;8.780;2023-06-14T11:30:00;100835.50;;;23.67;33.46
77321;BME280;66382;52.252;8.780;2023-06-14T11:32:27;100831.63;;;23.52;34.48
77321;BME280;66382;52.252;8.780;2023-06-14T11:34:53;100824.22;;;23.48;34.49
77321;BME280;66382;52.252;8.780;2023-06-14T11:37:19;100823.94;;;23.49;34.44
77321;BME280;66382;52.252;8.780;2023-06-14T11:39:45;100824.13;;;23.32;34.57
77321;BME280;66382;52.252;8.780;2023-06-14T11:42:13;100823.84;;;23.34;34.46
77321;BME280;66382;52.252;8.780;2023-06-14T11:44:39;100835.91;;;23.38;35.21
77321;BME280;66382;52.252;8.780;2023-06-14T11:47:05;100833.22;;;23.43;36.09
77321;BME280;66382;52.252;8.780;2023-06-14T11:49:36;100823.38;;;23.47;35.85
77321;BME280;66382;52.252;8.780;2023-06-14T11:52:02;100827.78;;;23.53;35.07
77321;BME280;66382;52.252;8.780;2023-06-14T11:54:28;100828.56;;;23.44;34.92
77321;BME280;66382;52.252;8.780;2023-06-14T11:56:54;100826.34;;;23.40;34.99
77321;BME280;66382;52.252;8.780;2023-06-14T11:59:20;100826.63;;;23.39;35.07
77321;BME280;66382;52.252;8.780;2023-06-14T12:01:47;100829.91;;;23.41;34.88
77321;BME280;66382;52.252;8.780;2023-06-14T12:04:13;100828.56;;;23.49;35.77
77321;BME280;66382;52.252;8.780;2023-06-14T12:06:40;100832.72;;;23.56;35.07
77321;BME280;66382;52.252;8.780;2023-06-14T12:09:06;100823.97;;;23.54;35.22
77321;BME280;66382;52.252;8.780;2023-06-14T12:11:33;100807.00;;;23.52;35.23
77321;BME280;66382;52.252;8.780;2023-06-14T12:13:59;100823.97;;;23.54;35.01
77321;BME280;66382;52.252;8.780;2023-06-14T12:16:30;100823.94;;;23.49;35.41
77321;BME280;66382;52.252;8.780;2023-06-14T12:18:55;100826.69;;;23.49;35.04
77321;BME280;66382;52.252;8.780;2023-06-14T12:21:22;100832.09;;;23.44;34.99
77321;BME280;66382;52.252;8.780;2023-06-14T12:23:50;100822.50;;;23.36;35.42
77321;BME280;66382;52.252;8.780;2023-06-14T12:26:16;100827.97;;;23.36;35.72
77321;BME280;66382;52.252;8.780;2023-06-14T12:28:44;100832.38;;;23.37;35.12
77321;BME280;66382;52.252;8.780;2023-06-14T12:31:11;100827.16;;;23.36;35.22
77321;BME280;66382;52.252;8.780;2023-06-14T12:33:37;100824.44;;;23.41;35.50
77321;BME280;66382;52.252;8.780;2023-06-14T12:36:04;100831.63;;;23.52;34.69
77321;BME280;66382;52.252;8.780;2023-06-14T12:38:30;100815.22;;;23.57;35.43
77321;BME280;66382;52.252;8.780;2023-06-14T12:40:57;100809.44;;;23.54;35.59
77321;BME280;66382;52.252;8.780;2023-06-14T12:43:23;100818.78;;;23.63;35.84
77321;BME280;66382;52.252;8.780;2023-06-14T12:45:48;100808.66;;;23.64;35.65
77321;BME280;66382;52.252;8.780;2023-06-14T12:48:14;100812.31;;;23.74;35.36